Time;durP1;ratioP1;P1;durP2;ratioP2;P2;SDS_P1;SDS_P2;PMS_P1;PMS_P2;Temp;Humidity;BMP_temperature;BMP_pressure;BME280_temperature;BME280_humidity;BME280_pressure;Samples;Min_cycle;Max_cycle;Signal;HPM_P1;HPM_P2
2023/03/28 00:01:04;;;;;;;19.38;2.45;;;3.10;99.90;;;;;;4933065;28;20051;-84
2023/03/28 00:03:34;;;;;;;19.83;2.47;;;2.20;99.90;;;;;;4933828;29;20055;-84
2023/03/28 00:06:00;;;;;;;18.02;2.13;;;2.20;99.90;;;;;;4932956;29;20055;-84
2023/03/28 00:08:27;;;;;;;23.05;2.47;;;3.10;99.90;;;;;;4932724;29;20051;-84
2023/03/28 00:11:02;;;;;;;17.08;2.47;;;2.20;99.90;;;;;;4917635;29;20117;-84
2023/03/28 00:13:28;;;;;;;17.73;2.42;;;2.20;99.90;;;;;;4933825;29;20039;-83
2023/03/28 00:15:54;;;;;;;23.13;4.35;;;2.20;99.90;;;;;;4932657;28;20106;-83
2023/03/28 00:18:20;;;;;;;18.42;2.65;;;2.90;99.90;;;;;;4933497;29;20053;-84
2023/03/28 00:20:47;;;;;;;19.60;2.58;;;3.30;99.90;;;;;;4932851;29;20090;-84
2023/03/28 00:23:12;;;;;;;17.70;2.70;;;2.60;99.90;;;;;;4932962;29;20068;-84
2023/03/28 00:25:40;;;;;;;17.15;2.28;;;3.40;99.90;;;;;;4917927;29;20499;-83
2023/03/28 00:28:06;;;;;;;16.27;2.38;;;3.30;99.90;;;;;;4917175;29;20061;-84
2023/03/28 00:30:32;;;;;;;17.38;3.05;;;3.20;99.90;;;;;;4916867;29;20047;-83
2023/03/28 00:32:58;;;;;;;12.07;2.42;;;2.90;99.90;;;;;;4933647;29;20050;-83
2023/03/28 00:35:24;;;;;;;14.38;2.70;;;3.40;99.90;;;;;;4931900;29;20527;-83
2023/03/28 00:37:56;;;;;;;17.05;2.10;;;2.40;99.90;;;;;;4916595;29;20043;-84
2023/03/28 00:40:24;;;;;;;25.00;2.88;;;2.40;99.90;;;;;;4916994;29;20113;-83
2023/03/28 00:42:50;;;;;;;13.77;1.73;;;3.50;99.90;;;;;;4932855;29;20562;-83
2023/03/28 00:45:16;;;;;;;22.83;2.42;;;2.50;99.90;;;;;;4931548;29;20055;-83
2023/03/28 00:47:48;;;;;;;14.90;2.70;;;3.40;99.90;;;;;;4917350;29;20043;-83
2023/03/28 00:50:23;;;;;;;23.40;2.33;;;3.10;99.90;;;;;;4930983;29;20070;-83
2023/03/28 00:53:04;;;;;;;20.42;2.67;;;2.90;99.90;;;;;;4916477;29;20043;-84
2023/03/28 00:55:39;;;;;;;15.93;2.45;;;2.30;99.90;;;;;;4917634;29;20455;-83
2023/03/28 00:58:08;;;;;;;21.80;2.25;;;2.20;99.90;;;;;;4932213;29;20043;-84
2023/03/28 01:00:35;;;;;;;15.85;2.13;;;2.90;99.90;;;;;;4916396;29;20055;-84
2023/03/28 01:03:02;;;;;;;14.38;2.40;;;2.80;99.90;;;;;;4916924;29;20048;-84
2023/03/28 01:05:32;;;;;;;14.23;2.10;;;2.10;99.90;;;;;;4914908;29;20087;-83
2023/03/28 01:08:06;;;;;;;14.20;2.58;;;3.20;99.90;;;;;;4917032;29;20059;-83
2023/03/28 01:10:32;;;;;;;13.80;1.90;;;2.10;99.90;;;;;;4916214;29;20495;-83
2023/03/28 01:12:59;;;;;;;18.30;2.17;;;2.90;99.90;;;;;;4916495;29;20452;-82
2023/03/28 01:15:25;;;;;;;16.58;3.72;;;3.30;99.90;;;;;;4916093;29;20043;-83
2023/03/28 01:17:52;;;;;;;9.35;1.75;;;2.60;99.90;;;;;;4932443;29;20043;-83
2023/03/28 01:20:28;;;;;;;17.92;2.42;;;3.00;99.90;;;;;;4930989;29;20051;-82
2023/03/28 01:23:25;;;;;;;15.35;1.88;;;2.00;99.90;;;;;;4932561;29;20077;-83
2023/03/28 01:26:12;;;;;;;15.38;2.08;;;1.90;99.90;;;;;;4915599;29;20432;-83
2023/03/28 01:29:26;;;;;;;15.38;2.00;;;1.90;99.90;;;;;;4916802;29;20086;-83
2023/03/28 01:32:18;;;;;;;13.38;1.77;;;1.60;99.90;;;;;;4916416;29;20051;-83
2023/03/28 01:34:44;;;;;;;13.95;2.13;;;1.50;99.90;;;;;;4932112;29;20055;-83
2023/03/28 01:37:22;;;;;;;13.40;1.80;;;1.40;99.90;;;;;;4931579;29;20047;-83
2023/03/28 01:40:07;;;;;;;14.43;1.80;;;1.40;99.90;;;;;;4915336;29;20137;-82
2023/03/28 01:42:53;;;;;;;13.23;2.33;;;1.40;99.90;;;;;;4916249;29;20129;-83
2023/03/28 01:45:31;;;;;;;20.45;2.40;;;1.30;99.90;;;;;;4916476;29;20043;-83
2023/03/28 01:48:05;;;;;;;12.05;2.67;;;1.30;99.90;;;;;;4932189;29;20396;-83
2023/03/28 01:50:42;;;;;;;13.85;2.88;;;1.30;99.90;;;;;;4915467;29;20133;-83
2023/03/28 01:53:17;;;;;;;14.98;2.45;;;1.30;99.90;;;;;;4932093;29;20053;-83
2023/03/28 01:55:56;;;;;;;16.40;2.08;;;1.90;99.90;;;;;;4915966;29;20043;-83
2023/03/28 01:58:34;;;;;;;17.27;2.13;;;1.80;99.90;;;;;;4916660;29;20039;-83
2023/03/28 02:01:12;;;;;;;16.70;2.35;;;1.20;99.90;;;;;;4915194;29;20090;-84
2023/03/28 02:03:42;;;;;;;15.63;1.92;;;2.20;99.90;;;;;;4915954;28;20051;-83
2023/03/28 02:06:09;;;;;;;12.80;2.30;;;2.20;99.90;;;;;;4919011;29;20062;-83
2023/03/28 02:08:38;;;;;;;25.23;2.63;;;1.20;99.90;;;;;;4918589;29;21223;-83
2023/03/28 02:11:05;;;;;;;23.38;2.47;;;1.20;99.90;;;;;;4919895;29;20055;-82
2023/03/28 02:13:39;;;;;;;13.05;1.95;;;1.10;99.90;;;;;;4935909;29;20494;-83
2023/03/28 02:16:08;;;;;;;12.63;2.30;;;1.80;99.90;;;;;;4919044;29;20062;-83
2023/03/28 02:18:39;;;;;;;19.17;2.90;;;1.10;99.90;;;;;;4920150;29;20047;-82
2023/03/28 02:21:12;;;;;;;23.42;2.65;;;1.30;99.90;;;;;;4934739;29;20058;-83
2023/03/28 02:23:43;;;;;;;9.98;1.58;;;1.10;99.90;;;;;;4919063;29;20054;-83
2023/03/28 02:26:09;;;;;;;10.45;1.35;;;2.10;99.90;;;;;;4918789;29;20134;-84
2023/03/28 02:28:36;;;;;;;20.45;2.45;;;1.00;99.90;;;;;;4919001;29;20050;-84
2023/03/28 02:31:04;;;;;;;19.05;2.03;;;1.00;99.90;;;;;;4918997;29;20526;-84
2023/03/28 02:33:39;;;;;;;16.10;2.17;;;1.00;99.90;;;;;;4935580;29;20043;-83
2023/03/28 02:36:23;;;;;;;15.82;2.75;;;0.90;99.90;;;;;;4933641;29;20051;-82
2023/03/28 02:38:56;;;;;;;11.90;1.60;;;0.80;99.90;;;;;;4935524;29;20467;-84
2023/03/28 02:41:42;;;;;;;20.25;2.05;;;0.70;99.90;;;;;;4935489;29;20511;-83
2023/03/28 02:44:30;;;;;;;14.48;2.90;;;0.70;99.90;;;;;;4934381;29;20045;-83
2023/03/28 02:47:24;;;;;;;17.83;2.75;;;0.70;99.90;;;;;;4919333;29;20043;-83
2023/03/28 02:50:13;;;;;;;20.33;2.70;;;0.60;99.90;;;;;;4934735;29;20121;-83
2023/03/28 02:52:58;;;;;;;27.40;2.97;;;0.70;99.90;;;;;;4919241;29;20558;-83
2023/03/28 02:55:38;;;;;;;23.08;2.60;;;0.70;99.90;;;;;;4934723;29;20051;-83
2023/03/28 02:58:09;;;;;;;21.85;2.63;;;0.70;99.90;;;;;;4918332;29;20480;-84
2023/03/28 03:00:36;;;;;;;15.05;2.08;;;0.70;99.90;;;;;;4918934;29;20142;-83
2023/03/28 03:03:02;;;;;;;17.10;2.78;;;1.40;99.90;;;;;;4934776;29;20134;-84
2023/03/28 03:05:29;;;;;;;20.73;2.53;;;0.70;99.90;;;;;;4917887;29;20566;-83
2023/03/28 03:07:55;;;;;;;17.35;3.55;;;1.60;99.90;;;;;;4918888;29;20059;-83
2023/03/28 03:10:21;;;;;;;16.25;1.90;;;1.50;99.90;;;;;;4934814;29;20047;-83
2023/03/28 03:12:47;;;;;;;13.43;1.92;;;1.50;99.90;;;;;;4934441;29;20193;-83
2023/03/28 03:15:15;;;;;;;15.32;2.70;;;1.30;99.90;;;;;;4918252;28;20055;-83
2023/03/28 03:17:42;;;;;;;19.33;2.70;;;1.10;99.90;;;;;;4917985;29;20150;-83
2023/03/28 03:20:09;;;;;;;17.52;3.10;;;1.80;99.90;;;;;;4917556;29;20058;-83
2023/03/28 03:22:35;;;;;;;11.10;2.28;;;0.60;99.90;;;;;;4934973;29;20049;-82
2023/03/28 03:25:05;;;;;;;16.25;2.92;;;1.20;99.90;;;;;;4918024;29;20039;-84
2023/03/28 03:27:33;;;;;;;15.57;1.98;;;1.30;99.90;;;;;;4919253;29;20514;-83
2023/03/28 03:29:58;;;;;;;13.18;2.22;;;0.90;99.90;;;;;;4934510;29;20063;-83
2023/03/28 03:32:25;;;;;;;12.90;2.00;;;1.00;99.90;;;;;;4918085;29;20047;-83
2023/03/28 03:34:50;;;;;;;17.58;2.15;;;1.10;99.90;;;;;;4918374;29;20436;-82
2023/03/28 03:37:16;;;;;;;14.82;2.25;;;0.70;99.90;;;;;;4933536;29;20085;-83
2023/03/28 03:39:44;;;;;;;13.20;2.40;;;0.00;99.90;;;;;;4917495;29;20484;-82
2023/03/28 03:42:10;;;;;;;20.75;2.80;;;0.00;99.90;;;;;;4917951;29;20106;-82
2023/03/28 03:44:36;;;;;;;17.67;2.15;;;0.00;99.90;;;;;;4934370;29;20058;-83
2023/03/28 03:47:03;;;;;;;17.00;2.72;;;0.40;99.90;;;;;;4933140;29;20043;-83
2023/03/28 03:49:28;;;;;;;16.23;2.25;;;0.10;99.90;;;;;;4918288;29;20051;-83
2023/03/28 03:51:54;;;;;;;10.80;2.90;;;0.00;99.90;;;;;;4917206;29;20047;-83
2023/03/28 03:54:20;;;;;;;15.02;2.58;;;-0.10;99.90;;;;;;4917037;29;20118;-83
2023/03/28 03:56:47;;;;;;;13.00;2.15;;;0.10;99.90;;;;;;4918075;29;20039;-83
2023/03/28 03:59:14;;;;;;;17.33;2.17;;;-0.20;99.90;;;;;;4937843;28;20319;-83
2023/03/28 04:01:42;;;;;;;16.80;2.50;;;-0.30;99.90;;;;;;4936322;28;20402;-83
2023/03/28 04:04:08;;;;;;;24.90;2.45;;;-0.30;99.90;;;;;;4953000;28;20057;-83
2023/03/28 04:06:37;;;;;;;16.00;2.38;;;-0.30;99.90;;;;;;4935637;28;20039;-83
2023/03/28 04:09:04;;;;;;;17.77;2.45;;;-0.30;99.90;;;;;;4951805;28;20498;-83
2023/03/28 04:11:29;;;;;;;10.38;2.33;;;-0.40;99.90;;;;;;4952224;28;20124;-83
2023/03/28 04:13:55;;;;;;;17.58;2.60;;;0.80;99.90;;;;;;4936122;28;20062;-83
2023/03/28 04:16:22;;;;;;;12.95;2.88;;;-0.40;99.90;;;;;;4936202;28;20054;-83
2023/03/28 04:18:49;;;;;;;21.70;2.75;;;-0.40;99.90;;;;;;4936820;28;20047;-83
2023/03/28 04:21:17;;;;;;;20.38;3.03;;;-0.40;99.90;;;;;;4935094;28;20050;-83
2023/03/28 04:23:43;;;;;;;16.75;2.40;;;-0.40;99.90;;;;;;4952295;28;20086;-83
2023/03/28 04:26:09;;;;;;;17.85;3.33;;;-0.50;99.90;;;;;;4952276;28;20138;-82
2023/03/28 04:28:35;;;;;;;20.00;2.58;;;-0.40;99.90;;;;;;4950918;28;20078;-82
2023/03/28 04:31:01;;;;;;;17.33;2.90;;;-0.50;99.90;;;;;;4935899;28;20122;-82
2023/03/28 04:33:29;;;;;;;11.90;1.90;;;-0.20;99.90;;;;;;4935356;28;20073;-82
2023/03/28 04:35:58;;;;;;;14.13;2.00;;;-0.50;99.90;;;;;;4934326;28;20051;-82
2023/03/28 04:38:26;;;;;;;15.15;2.85;;;-0.50;99.90;;;;;;4936238;28;20042;-82
2023/03/28 04:40:56;;;;;;;12.25;1.92;;;-0.60;99.90;;;;;;4951938;28;20914;-82
2023/03/28 04:43:23;;;;;;;18.88;3.03;;;0.00;99.90;;;;;;4935171;28;20097;-82
2023/03/28 04:45:49;;;;;;;24.25;2.92;;;-0.70;99.90;;;;;;4936375;28;20039;-83
2023/03/28 04:48:15;;;;;;;14.10;2.22;;;-0.60;99.90;;;;;;4952179;28;20057;-82
2023/03/28 04:50:41;;;;;;;17.27;2.10;;;-0.70;99.90;;;;;;4933950;28;20116;-82
2023/03/28 04:53:07;;;;;;;21.23;2.58;;;-0.70;99.90;;;;;;4936159;28;20493;-82
2023/03/28 04:55:33;;;;;;;16.55;3.13;;;-0.40;99.90;;;;;;4951469;28;20471;-82
2023/03/28 04:57:58;;;;;;;14.30;2.42;;;-0.30;99.90;;;;;;4951441;28;20088;-82
2023/03/28 05:00:24;;;;;;;14.68;2.10;;;-0.90;99.90;;;;;;4935755;28;20826;-82
2023/03/28 05:02:55;;;;;;;19.65;2.20;;;-0.90;99.90;;;;;;4935351;28;20092;-82
2023/03/28 05:05:21;;;;;;;17.25;2.33;;;-0.90;99.90;;;;;;4934026;28;20197;-82
2023/03/28 05:07:46;;;;;;;15.30;2.30;;;-0.10;99.90;;;;;;4935133;28;20247;-82
2023/03/28 05:10:12;;;;;;;13.07;2.40;;;-0.90;99.90;;;;;;4950764;28;20054;-82
2023/03/28 05:12:38;;;;;;;17.85;2.70;;;-0.90;99.90;;;;;;4935426;28;20057;-82
2023/03/28 05:15:05;;;;;;;12.23;2.63;;;-0.50;99.90;;;;;;4935462;28;20050;-82
2023/03/28 05:17:31;;;;;;;15.10;2.20;;;-0.90;99.90;;;;;;4951641;28;20456;-82
2023/03/28 05:19:57;;;;;;;16.65;2.63;;;-1.00;99.90;;;;;;4934781;28;20550;-82
2023/03/28 05:22:22;;;;;;;17.05;2.97;;;-1.00;99.90;;;;;;4951542;28;20138;-82
2023/03/28 05:24:48;;;;;;;16.15;2.50;;;-0.60;99.90;;;;;;4934781;28;20371;-82
2023/03/28 05:27:14;;;;;;;12.40;1.98;;;0.10;99.90;;;;;;4951528;28;20399;-82
2023/03/28 05:29:40;;;;;;;9.60;1.67;;;-0.90;99.90;;;;;;4935585;28;20050;-82
2023/03/28 05:32:06;;;;;;;23.30;2.92;;;-1.00;99.90;;;;;;4934271;28;20042;-81
2023/03/28 05:34:33;;;;;;;19.65;3.45;;;-1.00;99.90;;;;;;4932119;29;20627;-82
2023/03/28 05:36:59;;;;;;;20.52;2.72;;;-0.90;99.90;;;;;;4931337;29;20051;-81
2023/03/28 05:39:24;;;;;;;17.80;3.60;;;-0.80;99.90;;;;;;4934070;29;20055;-82
2023/03/28 05:41:50;;;;;;;20.20;3.17;;;-0.30;99.90;;;;;;4954596;29;20508;-81
2023/03/28 05:44:16;;;;;;;13.07;1.90;;;-0.50;99.90;;;;;;4938117;29;20170;-82
2023/03/28 05:46:42;;;;;;;14.35;2.60;;;-0.50;99.90;;;;;;4953589;29;20051;-82
2023/03/28 05:49:07;;;;;;;13.52;2.75;;;0.50;99.90;;;;;;4937990;29;20062;-82
2023/03/28 05:51:33;;;;;;;16.15;2.95;;;-0.30;99.90;;;;;;4944026;28;20038;-82
2023/03/28 05:53:59;;;;;;;14.48;2.95;;;-0.10;99.90;;;;;;4958358;28;20054;-82
2023/03/28 05:56:25;;;;;;;21.40;2.72;;;0.10;99.90;;;;;;4941304;28;20109;-82
2023/03/28 05:58:51;;;;;;;18.00;3.60;;;-0.10;99.90;;;;;;4976074;28;20741;-82
2023/03/28 06:01:17;;;;;;;13.43;2.88;;;0.00;99.90;;;;;;4975456;28;20046;-83
2023/03/28 06:03:44;;;;;;;19.83;3.67;;;0.00;99.90;;;;;;4960746;28;20088;-82
2023/03/28 06:06:10;;;;;;;17.65;3.25;;;0.40;99.90;;;;;;4959824;28;20042;-82
2023/03/28 06:08:37;;;;;;;26.63;3.42;;;0.20;99.90;;;;;;4975953;28;20053;-82
2023/03/28 06:11:03;;;;;;;14.68;2.78;;;0.40;99.90;;;;;;4960621;28;20043;-83
2023/03/28 06:13:29;;;;;;;22.08;3.13;;;0.50;99.90;;;;;;4960620;28;20462;-82
2023/03/28 06:15:55;;;;;;;22.13;3.30;;;0.70;99.90;;;;;;4961324;28;20050;-82
2023/03/28 06:18:20;;;;;;;19.13;3.00;;;0.80;99.90;;;;;;4977070;28;20514;-82
2023/03/28 06:20:46;;;;;;;21.20;3.42;;;0.90;99.90;;;;;;4975597;28;20046;-83
2023/03/28 06:23:12;;;;;;;15.20;2.42;;;2.00;99.90;;;;;;4961183;28;20072;-82
2023/03/28 06:25:38;;;;;;;19.27;2.65;;;1.20;99.90;;;;;;4960209;28;20042;-83
2023/03/28 06:28:03;;;;;;;23.38;2.50;;;1.30;99.90;;;;;;4976408;28;20043;-83
2023/03/28 06:30:29;;;;;;;16.27;2.50;;;1.40;99.90;;;;;;4977189;28;20137;-83
2023/03/28 06:32:55;;;;;;;13.98;2.92;;;1.70;99.90;;;;;;4953128;28;20047;-83
2023/03/28 06:35:20;;;;;;;21.67;3.25;;;2.50;99.90;;;;;;4954991;28;20559;-84
2023/03/28 06:37:46;;;;;;;16.10;3.22;;;2.90;99.90;;;;;;4959482;28;20048;-83
2023/03/28 06:40:12;;;;;;;18.10;2.80;;;2.20;99.90;;;;;;4959688;28;20038;-83
2023/03/28 06:42:37;;;;;;;22.02;3.45;;;2.00;99.90;;;;;;4960218;28;20034;-83
2023/03/28 06:45:03;;;;;;;15.25;2.63;;;2.40;99.90;;;;;;4976208;28;20551;-84
2023/03/28 06:47:29;;;;;;;18.45;2.95;;;2.20;99.90;;;;;;4960674;28;20133;-84
2023/03/28 06:49:55;;;;;;;12.98;3.03;;;2.80;99.90;;;;;;4975240;28;20133;-84
2023/03/28 06:52:22;;;;;;;13.85;2.95;;;2.60;99.90;;;;;;4956133;28;20061;-84
2023/03/28 06:54:48;;;;;;;20.27;2.72;;;2.50;99.90;;;;;;4957523;28;20098;-84
2023/03/28 06:57:17;;;;;;;21.77;3.35;;;2.50;99.90;;;;;;4957768;28;20085;-94
2023/03/28 06:59:42;;;;;;;19.52;3.47;;;2.60;99.90;;;;;;4958070;28;20061;-84
2023/03/28 07:02:10;;;;;;;12.18;2.10;;;2.60;99.90;;;;;;4972348;28;20046;-86
2023/03/28 07:04:36;;;;;;;11.02;2.40;;;2.70;99.90;;;;;;4956953;28;20054;-85
2023/03/28 07:07:01;;;;;;;14.95;2.72;;;2.70;99.90;;;;;;4958236;28;20513;-86
2023/03/28 07:09:27;;;;;;;14.77;2.67;;;2.70;99.90;;;;;;4954340;28;20501;-85
2023/03/28 07:11:53;;;;;;;10.95;2.20;;;2.60;99.90;;;;;;4937294;28;20051;-84
2023/03/28 07:14:19;;;;;;;19.75;2.60;;;2.60;99.90;;;;;;4953670;28;20050;-84
2023/03/28 07:16:44;;;;;;;14.77;2.75;;;2.60;99.90;;;;;;4953582;28;20480;-85
2023/03/28 07:19:10;;;;;;;18.50;2.50;;;2.40;99.90;;;;;;4952555;28;20042;-84
2023/03/28 07:21:36;;;;;;;12.75;2.63;;;3.20;99.90;;;;;;4953471;28;20050;-85
2023/03/28 07:24:02;;;;;;;15.32;2.13;;;3.00;99.90;;;;;;4937781;28;20463;-85
2023/03/28 07:26:27;;;;;;;11.55;2.40;;;2.30;99.90;;;;;;4953596;28;20589;-85
2023/03/28 07:29:03;;;;;;;15.05;2.63;;;2.90;99.90;;;;;;4953839;28;20102;-85
2023/03/28 07:31:28;;;;;;;12.13;2.60;;;2.60;99.90;;;;;;4936273;28;20138;-85
2023/03/28 07:33:56;;;;;;;16.10;2.40;;;3.30;99.90;;;;;;4941856;29;20054;-86
2023/03/28 07:36:24;;;;;;;18.88;2.80;;;2.90;99.90;;;;;;4933380;29;20047;-86
2023/03/28 07:38:50;;;;;;;13.13;1.88;;;3.00;99.90;;;;;;4934287;29;20426;-86
2023/03/28 07:41:37;;;;;;;9.70;2.22;;;3.10;99.90;;;;;;4935011;29;20077;-86
2023/03/28 07:44:03;;;;;;;12.10;2.42;;;3.90;99.90;;;;;;4933627;29;20403;-85
2023/03/28 07:46:31;;;;;;;13.38;2.40;;;4.40;99.90;;;;;;4933896;29;20043;-85
2023/03/28 07:48:59;;;;;;;19.83;2.28;;;4.10;99.90;;;;;;4934220;29;20539;-84
2023/03/28 07:51:25;;;;;;;17.25;2.17;;;4.80;99.90;;;;;;4933270;29;20059;-84
2023/03/28 07:53:56;;;;;;;13.35;2.15;;;3.90;99.90;;;;;;4917325;29;20039;-84
2023/03/28 07:56:22;;;;;;;11.95;2.40;;;4.00;99.90;;;;;;4917755;29;20082;-84
2023/03/28 07:58:48;;;;;;;14.25;2.50;;;4.20;99.90;;;;;;4917680;29;20078;-84
2023/03/28 08:01:14;;;;;;;8.88;1.70;;;4.30;99.90;;;;;;4933491;29;20043;-85
2023/03/28 08:03:40;;;;;;;13.30;2.25;;;4.50;99.90;;;;;;4933873;29;20044;-85
2023/03/28 08:06:14;;;;;;;15.57;2.08;;;5.10;99.90;;;;;;4931496;29;20094;-84
2023/03/28 08:08:40;;;;;;;14.90;2.55;;;4.70;99.90;;;;;;4917564;28;20142;-85
2023/03/28 08:11:06;;;;;;;18.70;2.05;;;4.80;99.90;;;;;;4917557;29;20047;-85
2023/03/28 08:13:32;;;;;;;11.82;2.10;;;4.80;99.90;;;;;;4917219;29;20039;-85
2023/03/28 08:16:04;;;;;;;11.27;1.50;;;4.90;99.90;;;;;;4917630;29;20050;-85
2023/03/28 08:18:32;;;;;;;8.55;1.70;;;4.70;99.90;;;;;;4918080;29;20067;-85
2023/03/28 08:21:00;;;;;;;10.68;1.80;;;5.10;99.90;;;;;;4931885;29;20130;-85
2023/03/28 08:23:27;;;;;;;12.75;1.83;;;6.00;99.90;;;;;;4933763;29;20047;-85
2023/03/28 08:26:03;;;;;;;12.82;1.50;;;5.40;99.90;;;;;;4916858;29;20411;-85
2023/03/28 08:28:32;;;;;;;12.07;1.52;;;5.60;99.90;;;;;;4917070;29;20039;-85
2023/03/28 08:30:58;;;;;;;14.40;1.80;;;5.80;99.90;;;;;;4917788;29;20055;-85
2023/03/28 08:33:25;;;;;;;15.90;1.50;;;6.10;99.90;;;;;;4933249;28;20040;-85
2023/03/28 08:35:52;;;;;;;11.52;2.03;;;6.30;99.90;;;;;;4915616;29;20047;-85
2023/03/28 08:38:23;;;;;;;14.00;2.45;;;6.40;99.90;;;;;;4933107;29;20063;-84
2023/03/28 08:41:01;;;;;;;11.88;1.95;;;6.50;99.90;;;;;;4932743;29;20130;-85
2023/03/28 08:43:37;;;;;;;7.97;1.13;;;6.60;99.90;;;;;;4916301;29;20409;-84
2023/03/28 08:46:03;;;;;;;6.28;1.15;;;6.70;99.90;;;;;;4916416;29;20510;-84
2023/03/28 08:48:44;;;;;;;7.95;1.20;;;6.80;99.90;;;;;;4916632;28;20185;-85
2023/03/28 08:51:22;;;;;;;8.98;1.00;;;6.70;99.90;;;;;;4916385;29;20047;-85
2023/03/28 08:54:04;;;;;;;10.25;1.25;;;6.60;99.90;;;;;;4932544;29;20135;-85
2023/03/28 08:56:47;;;;;;;3.08;0.85;;;6.40;99.90;;;;;;4915986;29;20510;-84
2023/03/28 08:59:15;;;;;;;;;;;6.30;99.90;;;;;;4917274;29;20103;-85
2023/03/28 09:01:41;;;;;;;8.90;1.10;;;6.70;99.90;;;;;;4933044;29;20369;-85
2023/03/28 09:04:20;;;;;;;9.25;1.30;;;6.10;99.90;;;;;;4915681;29;20051;-85
2023/03/28 09:06:47;;;;;;;8.23;0.85;;;6.10;99.90;;;;;;4931487;29;20035;-85
2023/03/28 09:09:27;;;;;;;6.03;0.82;;;6.10;99.90;;;;;;4916574;29;20492;-85
2023/03/28 09:12:04;;;;;;;8.70;1.40;;;6.20;99.90;;;;;;4932592;29;20043;-85
2023/03/28 09:14:33;;;;;;;5.88;1.35;;;6.30;99.90;;;;;;4932026;29;20062;-85
2023/03/28 09:17:22;;;;;;;6.55;1.00;;;6.40;99.90;;;;;;4931748;29;20051;-86
2023/03/28 09:20:10;;;;;;;4.93;1.10;;;6.40;99.90;;;;;;4932352;29;20058;-84
2023/03/28 09:22:41;;;;;;;5.75;1.35;;;6.50;99.90;;;;;;4932232;29;20134;-85
2023/03/28 09:25:20;;;;;;;6.63;1.40;;;6.80;99.90;;;;;;4931679;29;20459;-84
2023/03/28 09:27:57;;;;;;;9.95;1.42;;;6.70;99.90;;;;;;4932526;29;20079;-84
2023/03/28 09:30:29;;;;;;;8.10;1.10;;;6.80;99.90;;;;;;4916856;29;20101;-85
2023/03/28 09:32:59;;;;;;;8.00;1.48;;;6.80;99.90;;;;;;4915684;29;20046;-85
2023/03/28 09:35:27;;;;;;;10.23;1.10;;;6.90;99.90;;;;;;4915525;29;20495;-85
2023/03/28 09:37:58;;;;;;;7.22;1.30;;;7.00;99.90;;;;;;4915647;29;20039;-85
2023/03/28 09:40:28;;;;;;;9.57;1.30;;;7.00;99.90;;;;;;4916266;29;20062;-85
2023/03/28 09:43:13;;;;;;;11.07;1.40;;;7.20;99.90;;;;;;4916242;29;20062;-84
2023/03/28 09:45:44;;;;;;;4.93;0.77;;;7.30;99.90;;;;;;4915601;29;20080;-84
2023/03/28 09:48:22;;;;;;;12.07;1.52;;;7.40;99.90;;;;;;4931822;29;20049;-85
2023/03/28 09:50:49;;;;;;;9.30;1.00;;;7.40;99.90;;;;;;4915590;29;20058;-85
2023/03/28 09:53:22;;;;;;;4.35;0.90;;;7.50;99.90;;;;;;4931515;29;20101;-85
2023/03/28 09:55:49;;;;;;;5.50;1.10;;;7.50;99.90;;;;;;4915942;29;20044;-85
2023/03/28 09:58:16;;;;;;;4.43;0.73;;;7.60;99.90;;;;;;4916356;29;20043;-85
2023/03/28 10:00:50;;;;;;;4.10;0.95;;;7.60;99.90;;;;;;4915851;29;20051;-84
2023/03/28 10:03:21;;;;;;;6.45;0.80;;;7.60;99.90;;;;;;4932274;29;20047;-85
2023/03/28 10:05:49;;;;;;;8.40;1.27;;;7.60;99.90;;;;;;4914431;29;20051;-85
2023/03/28 10:08:22;;;;;;;7.55;1.00;;;7.70;99.90;;;;;;4931816;29;20063;-84
2023/03/28 10:11:03;;;;;;;3.65;1.02;;;7.80;99.90;;;;;;4916100;29;20114;-84
2023/03/28 10:13:36;;;;;;;6.65;1.20;;;7.90;99.90;;;;;;4931128;29;20051;-85
2023/03/28 10:16:04;;;;;;;6.15;0.90;;;8.00;99.90;;;;;;4931716;28;20076;-86
2023/03/28 10:18:31;;;;;;;7.13;1.15;;;8.10;99.90;;;;;;4932476;29;20494;-86
2023/03/28 10:21:06;;;;;;;8.90;1.42;;;7.90;99.90;;;;;;4931333;29;20039;-85
2023/03/28 10:23:32;;;;;;;9.60;1.95;;;8.20;99.90;;;;;;4932051;29;20056;-85
2023/03/28 10:26:01;;;;;;;7.90;1.48;;;8.20;99.90;;;;;;4918255;29;20055;-83
2023/03/28 10:28:33;;;;;;;5.95;1.63;;;8.30;99.90;;;;;;4935704;29;20062;-83
2023/03/28 10:31:01;;;;;;;6.50;1.55;;;8.40;99.90;;;;;;4920014;29;20464;-84
2023/03/28 10:33:33;;;;;;;7.95;1.33;;;8.40;99.90;;;;;;4920098;29;20043;-84
2023/03/28 10:36:00;;;;;;;8.05;1.63;;;8.30;99.90;;;;;;4917927;29;20039;-83
2023/03/28 10:38:34;;;;;;;5.72;1.50;;;8.40;99.90;;;;;;4935857;29;20051;-83
2023/03/28 10:41:06;;;;;;;7.30;1.73;;;8.40;99.90;;;;;;4919285;29;20054;-83
2023/03/28 10:43:35;;;;;;;6.43;1.42;;;8.30;99.90;;;;;;4935701;29;20173;-83
2023/03/28 10:46:05;;;;;;;4.95;1.10;;;8.20;99.90;;;;;;4920029;29;20043;-83
2023/03/28 10:48:33;;;;;;;9.20;1.27;;;8.10;99.90;;;;;;4940748;28;20122;-83
2023/03/28 10:51:07;;;;;;;5.03;1.10;;;8.20;99.90;;;;;;4938061;28;20050;-83
2023/03/28 10:53:50;;;;;;;6.20;1.40;;;8.50;99.90;;;;;;4938526;28;20164;-82
2023/03/28 10:56:32;;;;;;;6.57;1.80;;;8.60;99.90;;;;;;4929744;28;20499;-83
2023/03/28 10:59:15;;;;;;;6.20;1.33;;;8.60;99.90;;;;;;4928693;28;20518;-83
2023/03/28 11:01:48;;;;;;;6.22;1.58;;;8.60;99.90;;;;;;4950073;28;20529;-82
2023/03/28 11:04:22;;;;;;;;;;;8.60;99.90;;;;;;4931193;28;20090;-83
2023/03/28 11:06:53;;;;;;;;;;;8.50;99.90;;;;;;4922687;28;19929;-82
2023/03/28 11:09:40;;;;;;;6.38;1.30;;;8.40;99.90;;;;;;4950292;28;19970;-83
2023/03/28 11:12:07;;;;;;;4.00;1.02;;;8.30;99.90;;;;;;4951469;28;20105;-83
2023/03/28 11:14:52;;;;;;;6.43;1.48;;;8.20;99.90;;;;;;4936187;28;21656;-83
2023/03/28 11:17:31;;;;;;;5.20;1.52;;;8.20;99.90;;;;;;4934579;28;20082;-83
2023/03/28 11:20:19;;;;;;;8.18;1.67;;;8.30;99.90;;;;;;4954037;28;20055;-82
2023/03/28 11:22:54;;;;;;;4.03;1.33;;;8.40;99.90;;;;;;4954015;28;20390;-83
2023/03/28 11:25:20;;;;;;;7.07;1.58;;;8.40;99.90;;;;;;4937543;28;20533;-83
2023/03/28 11:27:46;;;;;;;9.32;1.85;;;8.50;99.90;;;;;;4938256;28;20082;-83
2023/03/28 11:30:17;;;;;;;7.85;2.20;;;8.50;99.90;;;;;;4953375;28;20050;-82
2023/03/28 11:32:51;;;;;;;6.93;1.52;;;8.50;99.90;;;;;;4953177;28;20046;-82
2023/03/28 11:35:22;;;;;;;7.22;2.05;;;8.60;99.90;;;;;;4936802;28;20129;-83
2023/03/28 11:38:03;;;;;;;4.45;1.38;;;8.70;99.90;;;;;;4952188;28;20440;-83
2023/03/28 11:40:36;;;;;;;5.85;1.50;;;8.90;99.90;;;;;;4937886;28;20077;-83
2023/03/28 11:43:04;;;;;;;10.43;1.88;;;9.00;99.90;;;;;;4937651;28;20035;-83
2023/03/28 11:45:33;;;;;;;8.30;1.92;;;9.00;99.90;;;;;;4937811;28;20043;-83
2023/03/28 11:48:11;;;;;;;7.18;1.67;;;9.00;99.90;;;;;;4937586;28;20454;-83
2023/03/28 11:50:55;;;;;;;6.78;1.70;;;9.00;99.90;;;;;;4936561;28;20043;-83
2023/03/28 11:53:31;;;;;;;12.15;1.95;;;8.90;99.90;;;;;;4937112;28;20051;-83
2023/03/28 11:56:03;;;;;;;6.05;1.35;;;8.80;99.90;;;;;;4937551;28;20054;-82
2023/03/28 11:58:33;;;;;;;10.23;2.20;;;8.80;99.90;;;;;;4953399;28;20051;-81
2023/03/28 12:01:02;;;;;;;7.15;1.73;;;8.80;99.90;;;;;;4936939;28;20054;-83
2023/03/28 12:03:47;;;;;;;8.18;1.75;;;8.90;99.90;;;;;;4937477;28;20051;-83
2023/03/28 12:06:21;;;;;;;6.82;1.50;;;9.00;99.90;;;;;;4935232;28;20046;-83
2023/03/28 12:08:56;;;;;;;7.53;1.85;;;9.10;99.90;;;;;;4936944;28;20129;-83
2023/03/28 12:11:30;;;;;;;7.15;1.90;;;9.10;99.90;;;;;;4936426;28;20042;-83
2023/03/28 12:14:05;;;;;;;8.55;2.00;;;9.10;99.90;;;;;;4936254;28;20097;-83
2023/03/28 12:16:36;;;;;;;7.28;2.03;;;9.20;99.90;;;;;;4933964;29;20094;-83
2023/03/28 12:19:09;;;;;;;11.68;2.00;;;9.30;99.90;;;;;;4933320;29;20047;-83
2023/03/28 12:21:48;;;;;;;5.28;1.95;;;9.30;99.90;;;;;;4932252;29;20457;-83
2023/03/28 12:24:41;;;;;;;6.93;2.20;;;9.40;99.90;;;;;;4917796;29;20150;-83
2023/03/28 12:27:19;;;;;;;7.78;1.48;;;9.60;99.90;;;;;;4932554;29;20505;-83
2023/03/28 12:29:58;;;;;;;4.72;1.60;;;9.70;99.90;;;;;;4933769;29;20494;-83
2023/03/28 12:32:37;;;;;;;4.43;1.65;;;9.70;99.90;;;;;;4933341;29;20134;-83
2023/03/28 12:35:17;;;;;;;6.22;1.77;;;9.70;99.90;;;;;;4915584;29;20043;-83
2023/03/28 12:38:17;;;;;;;8.70;2.40;;;9.60;99.90;;;;;;4933293;29;20043;-83
2023/03/28 12:41:04;;;;;;;7.72;1.65;;;9.60;99.90;;;;;;4916164;29;20113;-83
2023/03/28 12:43:42;;;;;;;6.15;1.83;;;9.60;99.90;;;;;;4933339;29;20054;-83
2023/03/28 12:46:13;;;;;;;7.07;1.65;;;9.60;99.90;;;;;;4916809;29;20047;-83
2023/03/28 12:48:45;;;;;;;5.72;1.70;;;9.60;99.90;;;;;;4931739;29;20047;-83
2023/03/28 12:51:18;;;;;;;7.35;1.70;;;9.60;99.90;;;;;;4915981;29;20087;-83
2023/03/28 12:53:45;;;;;;;;;;;9.50;99.90;;;;;;4932746;29;20043;-83
2023/03/28 12:56:13;;;;;;;6.03;2.20;;;9.30;99.90;;;;;;4932077;28;20442;-85
2023/03/28 12:58:38;;;;;;;9.63;2.20;;;9.30;99.90;;;;;;4932435;29;20086;-83
2023/03/28 13:01:07;;;;;;;7.53;2.10;;;9.30;99.90;;;;;;4916837;29;20090;-83
2023/03/28 13:03:58;;;;;;;9.70;2.03;;;9.30;99.90;;;;;;4932038;29;20047;-84
2023/03/28 13:06:41;;;;;;;7.75;1.73;;;9.40;99.90;;;;;;4932002;29;20134;-82
2023/03/28 13:09:28;;;;;;;7.60;2.00;;;9.40;99.90;;;;;;4931843;29;20061;-83